sensor_id;sensor_type;location;lat;lon;timestamp;pressure;altitude;pressure_sealevel;temperature;humidity
80798;BME280;70202;52.238;10.680;2023-08-24T00:00:51;100446.38;;;18.80;74.61
80798;BME280;70202;52.238;10.680;2023-08-24T00:01:51;100449.94;;;18.82;74.75
80798;BME280;70202;52.238;10.680;2023-08-24T00:02:52;100436.66;;;18.75;75.02
80798;BME280;70202;52.238;10.680;2023-08-24T00:03:52;100445.84;;;18.75;74.65
80798;BME280;70202;52.238;10.680;2023-08-24T00:04:53;100455.22;;;18.85;74.79
80798;BME280;70202;52.238;10.680;2023-08-24T00:05:53;100439.44;;;18.75;74.86
80798;BME280;70202;52.238;10.680;2023-08-24T00:06:54;100457.00;;;18.86;74.91
80798;BME280;70202;52.238;10.680;2023-08-24T00:07:54;100452.47;;;18.85;74.84
80798;BME280;70202;52.238;10.680;2023-08-24T00:08:55;100453.34;;;18.86;74.65
80798;BME280;70202;52.238;10.680;2023-08-24T00:09:55;100441.19;;;18.76;74.68
80798;BME280;70202;52.238;10.680;2023-08-24T00:10:55;100462.53;;;18.86;74.68
80798;BME280;70202;52.238;10.680;2023-08-24T00:11:56;100426.00;;;18.68;74.87
80798;BME280;70202;52.238;10.680;2023-08-24T00:12:56;100438.31;;;18.77;74.94
80798;BME280;70202;52.238;10.680;2023-08-24T00:13:56;100454.25;;;18.86;75.05
80798;BME280;70202;52.238;10.680;2023-08-24T00:14:57;100427.72;;;18.71;75.09
80798;BME280;70202;52.238;10.680;2023-08-24T00:15:58;100441.97;;;18.78;74.94
80798;BME280;70202;52.238;10.680;2023-08-24T00:16:58;100435.66;;;18.76;74.70
80798;BME280;70202;52.238;10.680;2023-08-24T00:17:59;100424.09;;;18.70;74.92
80798;BME280;70202;52.238;10.680;2023-08-24T00:18:59;100426.84;;;18.70;75.28
80798;BME280;70202;52.238;10.680;2023-08-24T00:19:59;100455.13;;;18.87;75.16
80798;BME280;70202;52.238;10.680;2023-08-24T00:21:00;100429.59;;;18.70;74.96
80798;BME280;70202;52.238;10.680;2023-08-24T00:22:02;100423.09;;;18.71;74.87
80798;BME280;70202;52.238;10.680;2023-08-24T00:23:04;100442.53;;;18.83;74.85
80798;BME280;70202;52.238;10.680;2023-08-24T00:24:04;100425.50;;;18.76;74.81
80798;BME280;70202;52.238;10.680;2023-08-24T00:25:07;100443.09;;;18.88;74.85
80798;BME280;70202;52.238;10.680;2023-08-24T00:26:07;100417.56;;;18.71;75.02
80798;BME280;70202;52.238;10.680;2023-08-24T00:27:08;100403.38;;;18.63;74.64
80798;BME280;70202;52.238;10.680;2023-08-24T00:28:08;100435.13;;;18.83;75.00
80798;BME280;70202;52.238;10.680;2023-08-24T00:29:09;100453.13;;;18.89;75.10
80798;BME280;70202;52.238;10.680;2023-08-24T00:30:10;100453.25;;;18.87;75.08
80798;BME280;70202;52.238;10.680;2023-08-24T00:31:10;100434.47;;;18.80;74.97
80798;BME280;70202;52.238;10.680;2023-08-24T00:32:11;100433.72;;;18.78;75.36
80798;BME280;70202;52.238;10.680;2023-08-24T00:33:12;100407.16;;;18.62;75.22
80798;BME280;70202;52.238;10.680;2023-08-24T00:34:12;100415.31;;;18.64;75.27
80798;BME280;70202;52.238;10.680;2023-08-24T00:35:13;100448.06;;;18.83;75.37
80798;BME280;70202;52.238;10.680;2023-08-24T00:36:13;100445.50;;;18.80;75.45
80798;BME280;70202;52.238;10.680;2023-08-24T00:37:13;100411.88;;;18.60;75.62
80798;BME280;70202;52.238;10.680;2023-08-24T00:38:14;100412.13;;;18.57;75.75
80798;BME280;70202;52.238;10.680;2023-08-24T00:39:14;100438.88;;;18.69;75.36
80798;BME280;70202;52.238;10.680;2023-08-24T00:40:16;100433.53;;;18.66;75.77
80798;BME280;70202;52.238;10.680;2023-08-24T00:41:17;100441.03;;;18.64;75.52
80798;BME280;70202;52.238;10.680;2023-08-24T00:42:18;100422.47;;;18.54;75.71
80798;BME280;70202;52.238;10.680;2023-08-24T00:43:18;100436.50;;;18.63;75.76
80798;BME280;70202;52.238;10.680;2023-08-24T00:44:22;100452.69;;;18.69;75.94
80798;BME280;70202;52.238;10.680;2023-08-24T00:45:22;100412.66;;;18.49;75.86
80798;BME280;70202;52.238;10.680;2023-08-24T00:46:23;100435.06;;;18.58;75.82
80798;BME280;70202;52.238;10.680;2023-08-24T00:47:27;100419.56;;;18.42;75.95
80798;BME280;70202;52.238;10.680;2023-08-24T00:48:28;100428.13;;;18.52;75.86
80798;BME280;70202;52.238;10.680;2023-08-24T00:49:29;100460.34;;;18.64;76.00
80798;BME280;70202;52.238;10.680;2023-08-24T00:50:30;100423.00;;;18.46;76.05
80798;BME280;70202;52.238;10.680;2023-08-24T00:51:30;100449.41;;;18.63;76.19
80798;BME280;70202;52.238;10.680;2023-08-24T00:52:31;100430.19;;;18.48;76.27
80798;BME280;70202;52.238;10.680;2023-08-24T00:53:33;100435.38;;;18.53;76.01
80798;BME280;70202;52.238;10.680;2023-08-24T00:54:35;100439.03;;;18.54;75.95
80798;BME280;70202;52.238;10.680;2023-08-24T00:55:37;100448.06;;;18.56;76.19
80798;BME280;70202;52.238;10.680;2023-08-24T00:56:37;100433.91;;;18.47;76.21
80798;BME280;70202;52.238;10.680;2023-08-24T00:57:39;100458.03;;;18.58;76.57
80798;BME280;70202;52.238;10.680;2023-08-24T00:58:41;100436.47;;;18.51;76.40
80798;BME280;70202;52.238;10.680;2023-08-24T00:59:42;100441.31;;;18.47;76.47
80798;BME280;70202;52.238;10.680;2023-08-24T01:00:43;100450.06;;;18.54;76.61
80798;BME280;70202;52.238;10.680;2023-08-24T01:01:45;100433.03;;;18.47;77.02
80798;BME280;70202;52.238;10.680;2023-08-24T01:02:47;100428.72;;;18.43;76.52
80798;BME280;70202;52.238;10.680;2023-08-24T01:03:47;100420.91;;;18.37;76.57
80798;BME280;70202;52.238;10.680;2023-08-24T01:04:47;100450.28;;;18.51;76.59
80798;BME280;70202;52.238;10.680;2023-08-24T01:05:48;100417.47;;;18.33;76.87
80798;BME280;70202;52.238;10.680;2023-08-24T01:06:48;100440.00;;;18.40;76.81
80798;BME280;70202;52.238;10.680;2023-08-24T01:07:49;100456.00;;;18.47;76.94
80798;BME280;70202;52.238;10.680;2023-08-24T01:08:50;100404.94;;;18.15;76.87
80798;BME280;70202;52.238;10.680;2023-08-24T01:09:50;100411.69;;;18.23;76.82
80798;BME280;70202;52.238;10.680;2023-08-24T01:10:58;100444.41;;;18.42;77.12
80798;BME280;70202;52.238;10.680;2023-08-24T01:13:30;100440.09;;;18.38;76.89
80798;BME280;70202;52.238;10.680;2023-08-24T01:14:54;100348.25;;;17.84;76.88
80798;BME280;70202;52.238;10.680;2023-08-24T01:16:11;100405.16;;;18.12;77.06
80798;BME280;70202;52.238;10.680;2023-08-24T01:17:15;100436.00;;;18.31;77.08
80798;BME280;70202;52.238;10.680;2023-08-24T01:18:20;100385.81;;;17.99;77.12
80798;BME280;70202;52.238;10.680;2023-08-24T01:19:38;100429.66;;;18.16;77.34
80798;BME280;70202;52.238;10.680;2023-08-24T01:20:40;100425.13;;;18.15;77.53
80798;BME280;70202;52.238;10.680;2023-08-24T01:21:42;100429.75;;;18.15;77.21
80798;BME280;70202;52.238;10.680;2023-08-24T01:23:07;100436.91;;;18.17;77.47
80798;BME280;70202;52.238;10.680;2023-08-24T01:24:13;100445.13;;;18.19;77.58
80798;BME280;70202;52.238;10.680;2023-08-24T01:26:27;100425.09;;;18.03;77.71
80798;BME280;70202;52.238;10.680;2023-08-24T01:27:28;100413.56;;;17.96;77.64
80798;BME280;70202;52.238;10.680;2023-08-24T01:28:30;100448.19;;;18.14;77.66
80798;BME280;70202;52.238;10.680;2023-08-24T01:29:31;100418.78;;;18.01;77.66
80798;BME280;70202;52.238;10.680;2023-08-24T01:30:33;100413.69;;;17.94;77.77
80798;BME280;70202;52.238;10.680;2023-08-24T01:31:35;100431.69;;;18.00;77.94
80798;BME280;70202;52.238;10.680;2023-08-24T01:32:36;100414.78;;;17.92;78.12
80798;BME280;70202;52.238;10.680;2023-08-24T01:33:36;100437.75;;;18.05;77.98
80798;BME280;70202;52.238;10.680;2023-08-24T01:34:37;100435.00;;;18.05;78.07
80798;BME280;70202;52.238;10.680;2023-08-24T01:35:39;100439.31;;;18.09;78.02
80798;BME280;70202;52.238;10.680;2023-08-24T01:36:40;100435.22;;;18.02;78.29
80798;BME280;70202;52.238;10.680;2023-08-24T01:37:41;100402.31;;;17.86;77.89
80798;BME280;70202;52.238;10.680;2023-08-24T01:38:42;100414.44;;;17.96;77.88
80798;BME280;70202;52.238;10.680;2023-08-24T01:39:46;100408.38;;;17.91;77.97
80798;BME280;70202;52.238;10.680;2023-08-24T01:41:02;100442.88;;;18.11;78.04
80798;BME280;70202;52.238;10.680;2023-08-24T01:42:10;100432.84;;;18.10;77.95
80798;BME280;70202;52.238;10.680;2023-08-24T01:43:14;100436.38;;;18.12;77.68
80798;BME280;70202;52.238;10.680;2023-08-24T01:44:18;100439.03;;;18.14;77.72
80798;BME280;70202;52.238;10.680;2023-08-24T01:45:22;100430.75;;;18.14;77.80
80798;BME280;70202;52.238;10.680;2023-08-24T01:46:25;100406.88;;;18.00;77.76
80798;BME280;70202;52.238;10.680;2023-08-24T01:47:27;100433.28;;;18.17;77.69
80798;BME280;70202;52.238;10.680;2023-08-24T01:48:29;100415.50;;;18.08;77.60
80798;BME280;70202;52.238;10.680;2023-08-24T01:49:30;100435.03;;;18.18;77.60
80798;BME280;70202;52.238;10.680;2023-08-24T01:50:32;100434.09;;;18.19;77.45
80798;BME280;70202;52.238;10.680;2023-08-24T01:51:34;100394.28;;;17.96;77.42
80798;BME280;70202;52.238;10.680;2023-08-24T01:52:35;100383.69;;;17.90;77.34
80798;BME280;70202;52.238;10.680;2023-08-24T01:53:36;100428.44;;;18.20;77.43
80798;BME280;70202;52.238;10.680;2023-08-24T01:54:39;100406.56;;;18.05;77.43
80798;BME280;70202;52.238;10.680;2023-08-24T01:55:39;100397.72;;;17.99;77.18
80798;BME280;70202;52.238;10.680;2023-08-24T01:56:40;100392.31;;;17.98;77.26
80798;BME280;70202;52.238;10.680;2023-08-24T01:57:40;100412.19;;;18.03;77.51
80798;BME280;70202;52.238;10.680;2023-08-24T01:58:40;100434.97;;;18.19;77.25
80798;BME280;70202;52.238;10.680;2023-08-24T01:59:41;100414.81;;;18.05;77.14
80798;BME280;70202;52.238;10.680;2023-08-24T02:00:42;100404.69;;;18.05;77.42
80798;BME280;70202;52.238;10.680;2023-08-24T02:01:42;100417.50;;;18.06;77.31
80798;BME280;70202;52.238;10.680;2023-08-24T02:02:44;100427.88;;;18.15;77.45
80798;BME280;70202;52.238;10.680;2023-08-24T02:03:44;100424.34;;;18.13;77.48
80798;BME280;70202;52.238;10.680;2023-08-24T02:04:44;100409.75;;;17.98;77.61
80798;BME280;70202;52.238;10.680;2023-08-24T02:05:45;100396.34;;;17.92;77.58
80798;BME280;70202;52.238;10.680;2023-08-24T02:06:45;100435.38;;;18.13;77.64
80798;BME280;70202;52.238;10.680;2023-08-24T02:07:46;100408.94;;;17.96;77.37
80798;BME280;70202;52.238;10.680;2023-08-24T02:08:46;100414.25;;;17.99;77.39
80798;BME280;70202;52.238;10.680;2023-08-24T02:09:47;100439.44;;;18.08;77.54
80798;BME280;70202;52.238;10.680;2023-08-24T02:10:47;100440.50;;;18.05;77.42
80798;BME280;70202;52.238;10.680;2023-08-24T02:11:48;100414.78;;;17.92;77.38
80798;BME280;70202;52.238;10.680;2023-08-24T02:12:48;100424.16;;;17.89;77.39
80798;BME280;70202;52.238;10.680;2023-08-24T02:13:49;100439.50;;;17.93;77.48
80798;BME280;70202;52.238;10.680;2023-08-24T02:14:49;100422.78;;;17.82;77.60
80798;BME280;70202;52.238;10.680;2023-08-24T02:15:50;100412.34;;;17.73;77.47
80798;BME280;70202;52.238;10.680;2023-08-24T02:16:50;100421.22;;;17.78;78.03
80798;BME280;70202;52.238;10.680;2023-08-24T02:17:50;100436.56;;;17.82;77.75
80798;BME280;70202;52.238;10.680;2023-08-24T02:18:51;100418.06;;;17.70;77.81
80798;BME280;70202;52.238;10.680;2023-08-24T02:19:51;100437.75;;;17.78;77.99
80798;BME280;70202;52.238;10.680;2023-08-24T02:20:52;100432.34;;;17.77;78.09
80798;BME280;70202;52.238;10.680;2023-08-24T02:21:53;100411.28;;;17.61;78.12
80798;BME280;70202;52.238;10.680;2023-08-24T02:22:53;100420.94;;;17.68;78.44
80798;BME280;70202;52.238;10.680;2023-08-24T02:23:54;100413.84;;;17.64;78.25
80798;BME280;70202;52.238;10.680;2023-08-24T02:24:54;100403.44;;;17.55;77.92
80798;BME280;70202;52.238;10.680;2023-08-24T02:25:56;100393.13;;;17.44;78.31
80798;BME280;70202;52.238;10.680;2023-08-24T02:26:56;100393.91;;;17.46;78.17
80798;BME280;70202;52.238;10.680;2023-08-24T02:27:57;100382.22;;;17.43;78.50
80798;BME280;70202;52.238;10.680;2023-08-24T02:28:59;100419.66;;;17.60;78.33
80798;BME280;70202;52.238;10.680;2023-08-24T02:29:59;100416.22;;;17.56;78.65
80798;BME280;70202;52.238;10.680;2023-08-24T02:31:02;100409.91;;;17.54;78.51
80798;BME280;70202;52.238;10.680;2023-08-24T02:32:02;100422.63;;;17.57;78.66
80798;BME280;70202;52.238;10.680;2023-08-24T02:33:03;100425.19;;;17.60;78.61
80798;BME280;70202;52.238;10.680;2023-08-24T02:34:03;100388.22;;;17.35;78.49
80798;BME280;70202;52.238;10.680;2023-08-24T02:35:04;100426.38;;;17.56;78.71
80798;BME280;70202;52.238;10.680;2023-08-24T02:36:05;100415.84;;;17.48;78.98
80798;BME280;70202;52.238;10.680;2023-08-24T02:37:05;100426.66;;;17.51;78.85
80798;BME280;70202;52.238;10.680;2023-08-24T02:38:05;100411.72;;;17.41;78.97
80798;BME280;70202;52.238;10.680;2023-08-24T02:39:06;100394.03;;;17.31;78.90
80798;BME280;70202;52.238;10.680;2023-08-24T02:40:07;100422.22;;;17.48;79.07
80798;BME280;70202;52.238;10.680;2023-08-24T02:41:09;100393.94;;;17.32;79.22
80798;BME280;70202;52.238;10.680;2023-08-24T02:42:11;100392.06;;;17.33;79.25
80798;BME280;70202;52.238;10.680;2023-08-24T02:43:11;100406.44;;;17.38;79.12
80798;BME280;70202;52.238;10.680;2023-08-24T02:44:12;100411.72;;;17.41;79.11
80798;BME280;70202;52.238;10.680;2023-08-24T02:45:12;100408.88;;;17.42;79.05
80798;BME280;70202;52.238;10.680;2023-08-24T02:46:13;100395.72;;;17.33;79.29
80798;BME280;70202;52.238;10.680;2023-08-24T02:47:13;100367.72;;;17.12;79.31
80798;BME280;70202;52.238;10.680;2023-08-24T02:48:15;100384.69;;;17.19;79.32
80798;BME280;70202;52.238;10.680;2023-08-24T02:49:15;100399.72;;;17.28;79.31
80798;BME280;70202;52.238;10.680;2023-08-24T02:50:15;100393.06;;;17.17;79.25
80798;BME280;70202;52.238;10.680;2023-08-24T02:51:16;100402.59;;;17.26;79.26
80798;BME280;70202;52.238;10.680;2023-08-24T02:52:16;100383.06;;;17.16;79.46
80798;BME280;70202;52.238;10.680;2023-08-24T02:53:17;100394.84;;;17.18;79.51
80798;BME280;70202;52.238;10.680;2023-08-24T02:54:17;100410.16;;;17.22;79.48
80798;BME280;70202;52.238;10.680;2023-08-24T02:55:17;100394.25;;;17.13;79.36
80798;BME280;70202;52.238;10.680;2023-08-24T02:56:18;100417.25;;;17.27;79.29
80798;BME280;70202;52.238;10.680;2023-08-24T02:57:18;100360.56;;;16.95;79.58
80798;BME280;70202;52.238;10.680;2023-08-24T02:58:19;100414.69;;;17.23;79.81
80798;BME280;70202;52.238;10.680;2023-08-24T02:59:19;100391.69;;;17.10;79.73
80798;BME280;70202;52.238;10.680;2023-08-24T03:00:20;100395.13;;;17.14;79.81
80798;BME280;70202;52.238;10.680;2023-08-24T03:01:20;100397.00;;;17.13;79.93
80798;BME280;70202;52.238;10.680;2023-08-24T03:02:21;100415.78;;;17.21;80.10
80798;BME280;70202;52.238;10.680;2023-08-24T03:03:21;100373.91;;;17.02;80.10
80798;BME280;70202;52.238;10.680;2023-08-24T03:04:22;100413.09;;;17.19;80.15
80798;BME280;70202;52.238;10.680;2023-08-24T03:05:22;100405.84;;;17.18;80.33
80798;BME280;70202;52.238;10.680;2023-08-24T03:06:23;100381.09;;;17.04;80.23
80798;BME280;70202;52.238;10.680;2023-08-24T03:07:26;100374.00;;;17.00;80.31
80798;BME280;70202;52.238;10.680;2023-08-24T03:08:26;100403.28;;;17.15;80.17
80798;BME280;70202;52.238;10.680;2023-08-24T03:09:27;100372.22;;;16.99;79.98
80798;BME280;70202;52.238;10.680;2023-08-24T03:10:27;100398.88;;;17.13;80.75
80798;BME280;70202;52.238;10.680;2023-08-24T03:11:28;100384.13;;;16.99;80.32
80798;BME280;70202;52.238;10.680;2023-08-24T03:12:28;100379.81;;;16.95;80.59
80798;BME280;70202;52.238;10.680;2023-08-24T03:13:29;100400.06;;;17.09;80.57
80798;BME280;70202;52.238;10.680;2023-08-24T03:14:30;100372.63;;;16.93;80.58
80798;BME280;70202;52.238;10.680;2023-08-24T03:15:30;100387.84;;;16.98;80.69
80798;BME280;70202;52.238;10.680;2023-08-24T03:16:31;100369.28;;;16.88;80.74
80798;BME280;70202;52.238;10.680;2023-08-24T03:17:31;100381.75;;;16.93;81.05
80798;BME280;70202;52.238;10.680;2023-08-24T03:18:32;100372.22;;;16.85;80.87
80798;BME280;70202;52.238;10.680;2023-08-24T03:19:33;100380.31;;;16.88;81.01
80798;BME280;70202;52.238;10.680;2023-08-24T03:20:33;100396.41;;;16.94;80.64
80798;BME280;70202;52.238;10.680;2023-08-24T03:21:33;100402.59;;;16.97;80.92
80798;BME280;70202;52.238;10.680;2023-08-24T03:22:34;100398.19;;;16.95;81.01
80798;BME280;70202;52.238;10.680;2023-08-24T03:23:34;100387.75;;;16.86;80.92
80798;BME280;70202;52.238;10.680;2023-08-24T03:24:35;100355.69;;;16.70;81.12
80798;BME280;70202;52.238;10.680;2023-08-24T03:25:37;100399.25;;;16.92;81.14
80798;BME280;70202;52.238;10.680;2023-08-24T03:26:38;100386.09;;;16.83;81.18
80798;BME280;70202;52.238;10.680;2023-08-24T03:27:38;100378.91;;;16.81;81.14
80798;BME280;70202;52.238;10.680;2023-08-24T03:28:38;100392.06;;;16.90;81.34
80798;BME280;70202;52.238;10.680;2023-08-24T03:29:39;100387.97;;;16.83;81.25
80798;BME280;70202;52.238;10.680;2023-08-24T03:30:46;100374.69;;;16.75;81.44
80798;BME280;70202;52.238;10.680;2023-08-24T03:31:46;100390.72;;;16.83;81.15
80798;BME280;70202;52.238;10.680;2023-08-24T03:32:47;100380.34;;;16.72;81.15
80798;BME280;70202;52.238;10.680;2023-08-24T03:33:47;100374.78;;;16.73;81.31
80798;BME280;70202;52.238;10.680;2023-08-24T03:34:48;100381.25;;;16.72;81.17
80798;BME280;70202;52.238;10.680;2023-08-24T03:35:48;100376.63;;;16.73;81.30
80798;BME280;70202;52.238;10.680;2023-08-24T03:36:49;100385.59;;;16.77;81.47
80798;BME280;70202;52.238;10.680;2023-08-24T03:37:50;100367.88;;;16.66;81.47
80798;BME280;70202;52.238;10.680;2023-08-24T03:38:51;100356.94;;;16.65;81.10
80798;BME280;70202;52.238;10.680;2023-08-24T03:39:51;100324.41;;;16.43;81.60
80798;BME280;70202;52.238;10.680;2023-08-24T03:40:52;100383.63;;;16.79;81.41
80798;BME280;70202;52.238;10.680;2023-08-24T03:41:52;100381.97;;;16.76;81.26
80798;BME280;70202;52.238;10.680;2023-08-24T03:42:52;100385.78;;;16.73;81.39
80798;BME280;70202;52.238;10.680;2023-08-24T03:43:53;100358.13;;;16.61;81.62
80798;BME280;70202;52.238;10.680;2023-08-24T03:44:53;100385.06;;;16.70;81.42
80798;BME280;70202;52.238;10.680;2023-08-24T03:45:54;100393.75;;;16.78;81.37
80798;BME280;70202;52.238;10.680;2023-08-24T03:46:54;100394.72;;;16.77;81.31
80798;BME280;70202;52.238;10.680;2023-08-24T03:47:55;100382.41;;;16.68;81.74
80798;BME280;70202;52.238;10.680;2023-08-24T03:48:55;100348.97;;;16.46;81.46
80798;BME280;70202;52.238;10.680;2023-08-24T03:49:56;100393.31;;;16.70;81.64
80798;BME280;70202;52.238;10.680;2023-08-24T03:50:57;100362.34;;;16.52;81.24
80798;BME280;70202;52.238;10.680;2023-08-24T03:51:58;100369.53;;;16.55;81.28
80798;BME280;70202;52.238;10.680;2023-08-24T03:52:58;100382.09;;;16.59;81.72
80798;BME280;70202;52.238;10.680;2023-08-24T03:53:58;100359.81;;;16.49;81.67
80798;BME280;70202;52.238;10.680;2023-08-24T03:54:59;100374.13;;;16.54;81.80
80798;BME280;70202;52.238;10.680;2023-08-24T03:55:59;100396.44;;;16.64;81.77
80798;BME280;70202;52.238;10.680;2023-08-24T03:57:01;100394.69;;;16.63;81.77
80798;BME280;70202;52.238;10.680;2023-08-24T03:58:02;100368.13;;;16.47;81.96
80798;BME280;70202;52.238;10.680;2023-08-24T03:59:03;100379.06;;;16.49;81.71
80798;BME280;70202;52.238;10.680;2023-08-24T04:00:07;100371.09;;;16.44;82.26
80798;BME280;70202;52.238;10.680;2023-08-24T04:01:11;100382.09;;;16.44;82.03
80798;BME280;70202;52.238;10.680;2023-08-24T04:02:12;100378.72;;;16.39;82.24
80798;BME280;70202;52.238;10.680;2023-08-24T04:03:12;100346.69;;;16.24;82.13
80798;BME280;70202;52.238;10.680;2023-08-24T04:04:13;100387.59;;;16.44;82.20
80798;BME280;70202;52.238;10.680;2023-08-24T04:05:13;100398.09;;;16.52;82.54
80798;BME280;70202;52.238;10.680;2023-08-24T04:06:14;100365.34;;;16.33;82.56
80798;BME280;70202;52.238;10.680;2023-08-24T04:07:14;100398.19;;;16.50;82.60
80798;BME280;70202;52.238;10.680;2023-08-24T04:08:15;100365.47;;;16.32;82.63
80798;BME280;70202;52.238;10.680;2023-08-24T04:09:15;100400.94;;;16.50;82.58
80798;BME280;70202;52.238;10.680;2023-08-24T04:10:15;100376.19;;;16.36;82.50
80798;BME280;70202;52.238;10.680;2023-08-24T04:11:16;100401.81;;;16.51;82.66
80798;BME280;70202;52.238;10.680;2023-08-24T04:12:16;100349.44;;;16.24;82.92
80798;BME280;70202;52.238;10.680;2023-08-24T04:13:17;100367.34;;;16.31;82.51
80798;BME280;70202;52.238;10.680;2023-08-24T04:14:17;100399.06;;;16.51;82.80
80798;BME280;70202;52.238;10.680;2023-08-24T04:15:17;100350.44;;;16.23;82.70
80798;BME280;70202;52.238;10.680;2023-08-24T04:16:18;100392.09;;;16.45;82.66
80798;BME280;70202;52.238;10.680;2023-08-24T04:17:18;100366.41;;;16.31;82.53
80798;BME280;70202;52.238;10.680;2023-08-24T04:18:19;100383.97;;;16.44;82.84
80798;BME280;70202;52.238;10.680;2023-08-24T04:19:19;100355.72;;;16.26;82.89
80798;BME280;70202;52.238;10.680;2023-08-24T04:20:19;100391.41;;;16.42;82.72
80798;BME280;70202;52.238;10.680;2023-08-24T04:21:20;100388.25;;;16.48;82.95
80798;BME280;70202;52.238;10.680;2023-08-24T04:22:20;100391.81;;;16.50;82.94
80798;BME280;70202;52.238;10.680;2023-08-24T04:23:24;100378.53;;;16.42;82.68
80798;BME280;70202;52.238;10.680;2023-08-24T04:24:28;100395.53;;;16.49;82.68
80798;BME280;70202;52.238;10.680;2023-08-24T04:25:29;100376.25;;;16.35;82.75
80798;BME280;70202;52.238;10.680;2023-08-24T04:26:30;100401.06;;;16.49;82.84
80798;BME280;70202;52.238;10.680;2023-08-24T04:27:31;100367.59;;;16.27;83.22
80798;BME280;70202;52.238;10.680;2023-08-24T04:28:31;100390.81;;;16.37;83.03
80798;BME280;70202;52.238;10.680;2023-08-24T04:29:32;100369.38;;;16.28;83.05
80798;BME280;70202;52.238;10.680;2023-08-24T04:30:32;100412.22;;;16.46;83.02
80798;BME280;70202;52.238;10.680;2023-08-24T04:31:34;100397.97;;;16.39;83.20
80798;BME280;70202;52.238;10.680;2023-08-24T04:32:35;100422.84;;;16.52;83.47
80798;BME280;70202;52.238;10.680;2023-08-24T04:33:35;100403.19;;;16.44;82.70
80798;BME280;70202;52.238;10.680;2023-08-24T04:34:36;100392.56;;;16.38;83.27
80798;BME280;70202;52.238;10.680;2023-08-24T04:35:36;100396.50;;;16.48;83.09
80798;BME280;70202;52.238;10.680;2023-08-24T04:36:37;100409.19;;;16.50;82.86
80798;BME280;70202;52.238;10.680;2023-08-24T04:37:37;100392.28;;;16.42;83.07
80798;BME280;70202;52.238;10.680;2023-08-24T04:38:38;100390.41;;;16.43;83.08
80798;BME280;70202;52.238;10.680;2023-08-24T04:39:38;100374.59;;;16.32;83.17
80798;BME280;70202;52.238;10.680;2023-08-24T04:40:53;100368.41;;;16.29;83.50
80798;BME280;70202;52.238;10.680;2023-08-24T04:41:53;100420.59;;;16.59;83.50
80798;BME280;70202;52.238;10.680;2023-08-24T04:42:54;100385.13;;;16.40;83.40
80798;BME280;70202;52.238;10.680;2023-08-24T04:43:54;100401.06;;;16.49;83.41
80798;BME280;70202;52.238;10.680;2023-08-24T04:44:55;100407.84;;;16.58;83.50
80798;BME280;70202;52.238;10.680;2023-08-24T04:45:55;100422.19;;;16.63;83.34
80798;BME280;70202;52.238;10.680;2023-08-24T04:46:55;100410.66;;;16.56;83.32
80798;BME280;70202;52.238;10.680;2023-08-24T04:47:56;100413.22;;;16.59;83.47
80798;BME280;70202;52.238;10.680;2023-08-24T04:48:56;100326.50;;;16.09;83.39
80798;BME280;70202;52.238;10.680;2023-08-24T04:49:57;100404.28;;;16.56;83.60
80798;BME280;70202;52.238;10.680;2023-08-24T04:50:57;100424.53;;;16.69;83.59
80798;BME280;70202;52.238;10.680;2023-08-24T04:51:58;100382.38;;;16.40;83.53
80798;BME280;70202;52.238;10.680;2023-08-24T04:52:58;100416.78;;;16.61;83.75
80798;BME280;70202;52.238;10.680;2023-08-24T04:53:58;100422.00;;;16.66;83.54
80798;BME280;70202;52.238;10.680;2023-08-24T04:54:59;100423.88;;;16.65;83.58
80798;BME280;70202;52.238;10.680;2023-08-24T04:55:59;100406.97;;;16.57;83.56
80798;BME280;70202;52.238;10.680;2023-08-24T04:57:00;100409.88;;;16.54;83.56
80798;BME280;70202;52.238;10.680;2023-08-24T04:58:00;100420.84;;;16.70;83.53
80798;BME280;70202;52.238;10.680;2023-08-24T04:59:00;100416.50;;;16.66;83.52
80798;BME280;70202;52.238;10.680;2023-08-24T05:00:02;100426.97;;;16.75;83.62
80798;BME280;70202;52.238;10.680;2023-08-24T05:01:05;100405.69;;;16.63;84.05
80798;BME280;70202;52.238;10.680;2023-08-24T05:02:05;100405.38;;;16.67;83.64
80798;BME280;70202;52.238;10.680;2023-08-24T05:03:07;100383.16;;;16.56;83.76
80798;BME280;70202;52.238;10.680;2023-08-24T05:04:07;100414.97;;;16.76;83.61
80798;BME280;70202;52.238;10.680;2023-08-24T05:05:08;100428.94;;;16.87;83.73
80798;BME280;70202;52.238;10.680;2023-08-24T05:06:14;100408.59;;;16.76;83.63
80798;BME280;70202;52.238;10.680;2023-08-24T05:07:14;100410.34;;;16.77;83.82
80798;BME280;70202;52.238;10.680;2023-08-24T05:08:14;100417.25;;;16.84;83.61
80798;BME280;70202;52.238;10.680;2023-08-24T05:09:15;100417.06;;;16.87;83.87
80798;BME280;70202;52.238;10.680;2023-08-24T05:10:15;100412.31;;;16.89;83.77
80798;BME280;70202;52.238;10.680;2023-08-24T05:11:22;100406.13;;;16.85;83.81
80798;BME280;70202;52.238;10.680;2023-08-24T05:12:22;100409.28;;;16.93;84.16
80798;BME280;70202;52.238;10.680;2023-08-24T05:13:23;100397.88;;;16.85;83.85
80798;BME280;70202;52.238;10.680;2023-08-24T05:14:23;100424.91;;;17.07;83.78
80798;BME280;70202;52.238;10.680;2023-08-24T05:15:24;100431.22;;;17.09;83.88
80798;BME280;70202;52.238;10.680;2023-08-24T05:16:24;100416.75;;;17.06;84.01
80798;BME280;70202;52.238;10.680;2023-08-24T05:17:24;100404.28;;;17.00;83.90
80798;BME280;70202;52.238;10.680;2023-08-24T05:18:27;100349.94;;;16.75;83.76
80798;BME280;70202;52.238;10.680;2023-08-24T05:19:27;100423.16;;;17.20;83.81